createdAt,value
2023-05-08T00:04:38.004Z,15.82
2023-05-08T00:09:42.564Z,18.02
2023-05-08T00:14:45.634Z,16.40
2023-05-08T00:19:48.796Z,17.48
2023-05-08T00:24:53.262Z,18.13
2023-05-08T00:29:56.621Z,18.50
2023-05-08T00:34:59.760Z,17.75
2023-05-08T00:40:04.382Z,17.05
2023-05-08T00:45:08.098Z,19.33
2023-05-08T00:50:12.056Z,16.98
2023-05-08T00:55:16.877Z,16.98
2023-05-08T01:00:21.597Z,15.85
2023-05-08T01:05:24.906Z,14.77
2023-05-08T01:10:33.957Z,17.23
2023-05-08T01:15:39.696Z,19.40
2023-05-08T01:20:46.148Z,19.58
2023-05-08T01:26:07.442Z,19.83
2023-05-08T01:31:16.159Z,19.35
2023-05-08T01:36:24.739Z,18.40
2023-05-08T01:41:29.289Z,17.88
2023-05-08T01:46:33.997Z,17.42
2023-05-08T01:51:41.442Z,18.70
2023-05-08T01:56:45.765Z,19.00
2023-05-08T02:01:49.285Z,18.40
2023-05-08T02:06:53.919Z,18.25
2023-05-08T02:11:57.766Z,17.80
2023-05-08T02:17:01.975Z,17.40
2023-05-08T02:22:06.632Z,17.00
2023-05-08T02:27:10.574Z,17.55
2023-05-08T02:32:14.351Z,18.52
2023-05-08T02:37:20.893Z,19.30
2023-05-08T02:42:24.033Z,17.48
2023-05-08T02:47:28.698Z,17.55
2023-05-08T02:52:37.052Z,19.13
2023-05-08T02:57:44.694Z,21.77
2023-05-08T03:02:50.745Z,20.75
2023-05-08T03:07:57.084Z,19.15
2023-05-08T03:13:01.154Z,20.13
2023-05-08T03:18:07.810Z,20.67
2023-05-08T03:23:13.772Z,19.15
2023-05-08T03:28:17.097Z,20.40
2023-05-08T03:33:20.757Z,19.88
2023-05-08T03:38:25.364Z,19.08
2023-05-08T03:43:29.138Z,19.85
2023-05-08T03:48:33.532Z,19.10
2023-05-08T03:53:39.091Z,21.08
2023-05-08T03:58:44.427Z,24.13
2023-05-08T04:03:54.932Z,20.67
2023-05-08T04:09:06.827Z,17.27
2023-05-08T04:14:12.245Z,22.35
2023-05-08T04:19:19.285Z,23.80
2023-05-08T04:24:24.753Z,25.88
2023-05-08T04:29:28.274Z,23.83
2023-05-08T04:34:31.475Z,25.23
2023-05-08T04:39:36.995Z,22.88
2023-05-08T04:44:40.452Z,24.23
2023-05-08T04:49:43.735Z,21.30
2023-05-08T04:54:48.294Z,24.52
2023-05-08T04:59:51.647Z,21.77
2023-05-08T05:04:58.699Z,22.55
2023-05-08T05:10:04.306Z,23.45
2023-05-08T05:15:10.365Z,25.02
2023-05-08T05:20:15.023Z,26.55
2023-05-08T05:25:19.901Z,24.08
2023-05-08T05:30:23.248Z,24.92
2023-05-08T05:35:26.800Z,24.15
2023-05-08T05:40:33.452Z,24.92
2023-05-08T05:45:37.006Z,24.70
2023-05-08T05:50:40.571Z,24.77
2023-05-08T05:55:45.188Z,24.27
2023-05-08T06:00:48.643Z,24.50
2023-05-08T06:05:52.152Z,24.15
2023-05-08T06:10:57.363Z,25.38
2023-05-08T06:16:00.534Z,24.27
2023-05-08T06:21:03.706Z,25.00
2023-05-08T06:26:08.227Z,24.77
2023-05-08T06:31:11.603Z,25.30
2023-05-08T06:36:14.800Z,26.95
2023-05-08T06:41:19.316Z,27.88
2023-05-08T06:46:22.739Z,30.90
2023-05-08T06:51:26.260Z,30.58
2023-05-08T06:56:30.833Z,30.90
2023-05-08T07:01:34.145Z,29.25
2023-05-08T07:06:37.345Z,31.27
2023-05-08T07:11:41.789Z,28.60
2023-05-08T07:16:44.958Z,30.13
2023-05-08T07:21:48.216Z,29.17
2023-05-08T07:26:52.778Z,29.38
2023-05-08T07:31:56.784Z,27.92
2023-05-08T07:36:59.907Z,29.75
2023-05-08T07:42:04.528Z,29.35
2023-05-08T07:47:07.705Z,27.60
2023-05-08T07:52:11.280Z,30.95
2023-05-08T07:57:15.942Z,29.30
2023-05-08T08:02:19.084Z,30.75
2023-05-08T08:07:22.187Z,31.63
2023-05-08T08:12:26.921Z,31.88
2023-05-08T08:17:30.121Z,29.52
2023-05-08T08:22:33.447Z,32.33
2023-05-08T08:27:38.084Z,33.40
2023-05-08T08:32:42.473Z,32.20
2023-05-08T08:37:45.657Z,31.42
2023-05-08T08:42:50.197Z,34.60
2023-05-08T08:47:53.839Z,32.95
2023-05-08T08:52:57.627Z,31.30
2023-05-08T08:58:08.132Z,33.72
2023-05-08T09:03:11.506Z,31.90
2023-05-08T09:08:14.750Z,31.67
2023-05-08T09:13:19.927Z,31.75
2023-05-08T09:18:23.205Z,29.17
2023-05-08T09:23:26.350Z,28.08
2023-05-08T09:28:30.899Z,28.20
2023-05-08T09:33:33.963Z,27.85
2023-05-08T09:38:37.977Z,29.83
2023-05-08T09:43:42.706Z,28.40
2023-05-08T09:48:46.428Z,28.65
2023-05-08T09:53:51.531Z,24.38
2023-05-08T09:58:56.182Z,26.98
2023-05-08T10:03:59.684Z,26.85
2023-05-08T10:09:09.607Z,27.73
2023-05-08T10:14:14.087Z,25.75
2023-05-08T10:19:18.232Z,29.00
2023-05-08T10:24:22.062Z,33.03
2023-05-08T10:29:31.165Z,30.20
2023-05-08T10:34:34.990Z,31.80
2023-05-08T10:39:38.531Z,32.08
2023-05-08T10:44:43.045Z,34.53
2023-05-08T10:49:52.979Z,33.40
2023-05-08T10:55:07.701Z,26.52
2023-05-08T11:00:12.955Z,35.33
2023-05-08T11:05:16.864Z,38.13
2023-05-08T11:10:20.187Z,40.00
2023-05-08T11:15:36.516Z,40.58
2023-05-08T11:20:40.246Z,40.55
2023-05-08T11:25:44.241Z,41.42
2023-05-08T11:30:48.710Z,42.15
2023-05-08T11:35:53.352Z,43.78
2023-05-08T11:40:58.980Z,43.80
2023-05-08T11:46:05.003Z,42.88
2023-05-08T11:51:08.183Z,42.33
2023-05-08T11:56:11.472Z,40.75
2023-05-08T12:01:20.821Z,41.22
2023-05-08T12:06:23.981Z,37.17
2023-05-08T12:11:27.261Z,35.80
2023-05-08T12:16:31.820Z,36.00
2023-05-08T12:21:34.997Z,37.42
2023-05-08T12:26:38.351Z,36.47
2023-05-08T12:31:42.839Z,37.80
2023-05-08T12:36:46.078Z,40.00
2023-05-08T12:41:49.917Z,42.83
2023-05-08T12:46:55.549Z,42.92
2023-05-08T12:52:02.963Z,41.85
2023-05-08T12:57:12.761Z,39.38
2023-05-08T13:02:18.271Z,39.08
2023-05-08T13:07:21.570Z,35.35
2023-05-08T13:12:24.731Z,42.75
2023-05-08T13:17:29.254Z,41.88
2023-05-08T13:22:32.415Z,40.78
2023-05-08T13:27:35.590Z,39.22
2023-05-08T13:32:40.207Z,36.95
2023-05-08T13:37:43.442Z,37.13
2023-05-08T13:42:46.608Z,43.05
2023-05-08T13:47:51.406Z,41.17
2023-05-08T13:52:55.181Z,38.03
2023-05-08T13:57:58.854Z,35.03
2023-05-08T14:03:03.895Z,36.97
2023-05-08T14:08:07.150Z,36.22
2023-05-08T14:13:10.390Z,32.00
2023-05-08T14:18:15.024Z,33.67
2023-05-08T14:23:18.163Z,35.17
2023-05-08T14:28:21.272Z,37.00
2023-05-08T14:33:25.779Z,32.92
2023-05-08T14:38:28.959Z,34.47
2023-05-08T14:43:32.151Z,36.28
2023-05-08T14:48:36.659Z,35.28
2023-05-08T14:53:39.906Z,37.70
2023-05-08T14:58:43.115Z,35.30
2023-05-08T15:03:53.151Z,34.03
2023-05-08T15:08:56.580Z,37.90
2023-05-08T15:14:01.852Z,40.65
2023-05-08T15:19:06.430Z,41.47
2023-05-08T15:24:09.886Z,42.65
2023-05-08T15:29:13.063Z,44.08
2023-05-08T15:34:17.569Z,39.20
2023-05-08T15:39:20.851Z,43.28
2023-05-08T15:44:26.604Z,40.75
2023-05-08T15:49:33.246Z,41.55
2023-05-08T15:54:36.327Z,39.63
2023-05-08T15:59:39.654Z,39.45
2023-05-08T16:04:44.340Z,40.90
2023-05-08T16:09:47.483Z,39.55
2023-05-08T16:14:50.930Z,39.50
2023-05-08T16:19:55.461Z,38.20
2023-05-08T16:24:58.628Z,40.08
2023-05-08T16:30:01.836Z,38.10
2023-05-08T16:35:06.965Z,39.63
2023-05-08T16:40:10.685Z,37.67
2023-05-08T16:45:14.047Z,39.17
2023-05-08T16:50:18.756Z,37.50
2023-05-08T16:55:21.987Z,38.53
2023-05-08T17:00:25.184Z,39.50
2023-05-08T17:05:29.653Z,39.92
2023-05-08T17:10:32.963Z,33.55
2023-05-08T17:15:36.154Z,35.00
2023-05-08T17:20:42.420Z,37.03
2023-05-08T17:25:45.659Z,36.63
2023-05-08T17:30:48.907Z,33.13
2023-05-08T17:35:53.484Z,34.47
2023-05-08T17:40:57.111Z,31.30
2023-05-08T17:46:00.369Z,33.78
2023-05-08T17:51:05.101Z,36.13
2023-05-08T17:56:08.714Z,35.80
2023-05-08T18:01:11.889Z,31.63
2023-05-08T18:06:17.336Z,34.42
2023-05-08T18:11:21.310Z,33.35
2023-05-08T18:16:24.496Z,35.20
2023-05-08T18:21:29.107Z,35.85
2023-05-08T18:26:32.220Z,36.13
2023-05-08T18:31:35.394Z,32.50
2023-05-08T18:36:39.974Z,33.90
2023-05-08T18:41:43.119Z,34.08
2023-05-08T18:46:46.464Z,30.92
2023-05-08T18:51:51.149Z,32.58
2023-05-08T18:56:54.431Z,35.58
2023-05-08T19:01:57.560Z,33.20
2023-05-08T19:07:02.109Z,35.92
2023-05-08T19:12:05.303Z,32.35
2023-05-08T19:17:08.433Z,30.10
2023-05-08T19:22:12.989Z,29.27
2023-05-08T19:27:16.083Z,32.35
2023-05-08T19:32:19.172Z,34.17
2023-05-08T19:37:23.739Z,33.38
2023-05-08T19:42:27.074Z,33.80
2023-05-08T19:47:30.400Z,33.97
2023-05-08T19:52:35.056Z,30.00
2023-05-08T19:57:38.171Z,30.55
2023-05-08T20:02:41.458Z,28.50
2023-05-08T20:07:46.109Z,25.58
2023-05-08T20:12:49.343Z,27.00
2023-05-08T20:17:52.870Z,28.23
2023-05-08T20:22:57.987Z,28.77
2023-05-08T20:28:01.221Z,29.92
2023-05-08T20:33:05.184Z,34.67
2023-05-08T20:38:10.006Z,28.17
2023-05-08T20:43:13.175Z,28.85
2023-05-08T20:48:16.418Z,29.15
2023-05-08T20:53:21.004Z,29.83
2023-05-08T20:58:24.177Z,33.42
2023-05-08T21:03:27.334Z,31.20
2023-05-08T21:08:31.958Z,30.80
2023-05-08T21:13:35.237Z,33.45
2023-05-08T21:18:38.430Z,33.03
2023-05-08T21:23:42.975Z,34.90
2023-05-08T21:28:46.259Z,39.28
2023-05-08T21:33:49.698Z,35.15
2023-05-08T21:38:54.171Z,34.13
2023-05-08T21:43:57.475Z,36.67
2023-05-08T21:49:00.646Z,35.53
2023-05-08T21:54:05.298Z,35.08
2023-05-08T21:59:08.537Z,33.75
2023-05-08T22:04:11.642Z,35.05
2023-05-08T22:09:16.111Z,33.72
2023-05-08T22:14:19.194Z,35.03
2023-05-08T22:19:22.266Z,34.67
2023-05-08T22:24:27.035Z,33.75
2023-05-08T22:29:30.341Z,34.40
2023-05-08T22:34:33.517Z,33.50
2023-05-08T22:39:38.034Z,32.92
2023-05-08T22:44:41.259Z,34.17
2023-05-08T22:49:44.396Z,30.85
2023-05-08T22:54:48.928Z,29.58
2023-05-08T22:59:52.134Z,30.88
2023-05-08T23:04:56.598Z,29.95
2023-05-08T23:10:01.185Z,29.67
2023-05-08T23:15:04.640Z,30.30
2023-05-08T23:20:08.352Z,32.83
2023-05-08T23:25:13.140Z,33.47
2023-05-08T23:30:17.050Z,34.90
2023-05-08T23:35:20.352Z,26.50
2023-05-08T23:40:25.003Z,27.10
2023-05-08T23:45:28.234Z,29.08
2023-05-08T23:50:31.389Z,30.67
2023-05-08T23:55:37.805Z,32.00
